createdAt,value
2022-08-31T00:00:14.246Z,22.34
2022-08-31T00:02:59.775Z,22.11
2022-08-31T00:05:28.207Z,22.03
2022-08-31T00:07:55.904Z,22.08
2022-08-31T00:10:32.388Z,22.00
2022-08-31T00:13:02.990Z,21.87
2022-08-31T00:15:30.425Z,22.03
2022-08-31T00:17:57.903Z,22.15
2022-08-31T00:20:33.266Z,22.05
2022-08-31T00:23:07.169Z,21.86
2022-08-31T00:25:35.246Z,21.88
2022-08-31T00:28:03.850Z,22.03
2022-08-31T00:30:32.051Z,21.80
2022-08-31T00:32:59.432Z,21.78
2022-08-31T00:35:27.944Z,21.86
2022-08-31T00:37:55.496Z,21.98
2022-08-31T00:40:23.285Z,21.66
2022-08-31T00:42:50.910Z,21.57
2022-08-31T00:45:18.378Z,21.42
2022-08-31T00:47:45.817Z,21.48
2022-08-31T00:50:15.278Z,21.31
2022-08-31T00:52:46.809Z,21.40
2022-08-31T00:55:21.905Z,21.48
2022-08-31T00:57:51.950Z,21.60
2022-08-31T01:00:22.465Z,21.42
2022-08-31T01:02:50.020Z,21.51
2022-08-31T01:05:17.987Z,21.54
2022-08-31T01:07:49.456Z,21.39
2022-08-31T01:10:19.953Z,21.43
2022-08-31T01:12:48.129Z,21.20
2022-08-31T01:15:18.079Z,20.90
2022-08-31T01:17:46.884Z,20.99
2022-08-31T01:20:22.490Z,20.96
2022-08-31T01:22:58.724Z,21.00
2022-08-31T01:25:32.554Z,21.21
2022-08-31T01:28:05.208Z,21.04
2022-08-31T01:30:32.836Z,21.10
2022-08-31T01:33:00.467Z,21.14
2022-08-31T01:35:27.865Z,21.25
2022-08-31T01:37:56.674Z,21.21
2022-08-31T01:40:50.056Z,21.13
2022-08-31T01:43:17.547Z,20.97
2022-08-31T01:45:45.011Z,20.92
2022-08-31T01:48:12.849Z,20.84
2022-08-31T01:50:40.302Z,20.85
2022-08-31T01:53:08.051Z,20.75
2022-08-31T01:55:35.722Z,20.69
2022-08-31T01:58:03.162Z,20.75
2022-08-31T02:00:39.589Z,20.91
2022-08-31T02:03:08.040Z,20.90
2022-08-31T02:05:36.912Z,20.71
2022-08-31T02:08:06.850Z,20.66
2022-08-31T02:10:34.428Z,20.54
2022-08-31T02:13:01.716Z,20.51
2022-08-31T02:15:32.227Z,20.66
2022-08-31T02:17:59.860Z,20.81
2022-08-31T02:20:27.499Z,20.91
2022-08-31T02:22:56.439Z,20.52
2022-08-31T02:25:24.019Z,20.60
2022-08-31T02:27:51.799Z,20.68
2022-08-31T02:30:19.403Z,20.44
2022-08-31T02:32:46.815Z,20.51
2022-08-31T02:35:14.179Z,20.63
2022-08-31T02:37:42.153Z,20.71
2022-08-31T02:40:12.298Z,20.77
2022-08-31T02:42:52.674Z,20.98
2022-08-31T02:45:22.784Z,20.91
2022-08-31T02:47:50.199Z,20.84
2022-08-31T02:50:28.117Z,20.09
2022-08-31T02:52:56.888Z,20.11
2022-08-31T02:55:26.130Z,20.26
2022-08-31T02:57:53.693Z,19.94
2022-08-31T03:00:23.202Z,19.96
2022-08-31T03:02:51.280Z,20.11
2022-08-31T03:05:20.782Z,20.32
2022-08-31T03:07:49.841Z,20.06
2022-08-31T03:10:20.462Z,19.97
2022-08-31T03:12:49.026Z,20.20
2022-08-31T03:15:17.951Z,19.48
2022-08-31T03:17:46.653Z,19.77
2022-08-31T03:20:15.365Z,19.88
2022-08-31T03:22:45.688Z,19.86
2022-08-31T03:25:14.204Z,20.14
2022-08-31T03:27:41.490Z,20.31
2022-08-31T03:30:11.508Z,19.59
2022-08-31T03:32:41.394Z,19.48
2022-08-31T03:35:09.084Z,19.17
2022-08-31T03:37:38.218Z,18.85
2022-08-31T03:40:06.514Z,19.22
2022-08-31T03:42:35.333Z,19.35
2022-08-31T03:45:03.517Z,18.93
2022-08-31T03:47:33.804Z,19.01
2022-08-31T03:50:01.298Z,18.60
2022-08-31T03:52:37.879Z,19.02
2022-08-31T03:55:12.640Z,18.94
2022-08-31T03:57:41.635Z,19.36
2022-08-31T04:00:10.023Z,19.21
2022-08-31T04:02:43.790Z,19.26
2022-08-31T04:05:31.537Z,19.08
2022-08-31T04:08:18.201Z,19.29
2022-08-31T04:10:49.769Z,19.39
2022-08-31T04:13:37.852Z,19.55
2022-08-31T04:16:23.994Z,19.42
2022-08-31T04:18:54.385Z,19.64
2022-08-31T04:21:25.341Z,19.50
2022-08-31T04:23:52.986Z,19.08
2022-08-31T04:26:23.820Z,18.96
2022-08-31T04:28:51.593Z,19.04
2022-08-31T04:31:20.544Z,19.36
2022-08-31T04:33:48.321Z,19.52
2022-08-31T04:36:21.389Z,19.54
2022-08-31T04:38:53.262Z,19.79
2022-08-31T04:41:22.577Z,19.84
2022-08-31T04:43:54.533Z,20.03
2022-08-31T04:46:22.515Z,19.46
2022-08-31T04:48:50.300Z,18.99
2022-08-31T04:51:37.913Z,18.86
2022-08-31T04:54:08.481Z,18.81
2022-08-31T04:56:39.755Z,18.92
2022-08-31T04:59:09.497Z,19.11
2022-08-31T05:01:45.513Z,18.89
2022-08-31T05:04:31.912Z,18.86
2022-08-31T05:06:59.603Z,19.66
2022-08-31T05:09:27.247Z,19.83
2022-08-31T05:11:56.319Z,19.24
2022-08-31T05:14:25.965Z,19.20
2022-08-31T05:17:01.259Z,18.91
2022-08-31T05:19:31.982Z,18.89
2022-08-31T05:21:59.728Z,18.78
2022-08-31T05:24:27.602Z,18.57
2022-08-31T05:26:56.308Z,18.74
2022-08-31T05:29:25.364Z,19.16
2022-08-31T05:32:07.621Z,19.41
2022-08-31T05:34:34.925Z,18.93
2022-08-31T05:37:03.036Z,18.85
2022-08-31T05:39:33.439Z,18.80
2022-08-31T05:42:00.912Z,18.56
2022-08-31T05:44:29.579Z,18.79
2022-08-31T05:47:03.414Z,19.08
2022-08-31T05:49:32.327Z,19.21
2022-08-31T05:52:05.321Z,18.94
2022-08-31T05:54:36.201Z,18.77
2022-08-31T05:57:04.741Z,18.33
2022-08-31T05:59:32.168Z,18.35
2022-08-31T06:02:00.770Z,18.46
2022-08-31T06:04:32.399Z,18.34
2022-08-31T06:06:59.819Z,18.56
2022-08-31T06:09:33.194Z,19.18
2022-08-31T06:12:03.688Z,19.66
2022-08-31T06:14:32.008Z,18.89
2022-08-31T06:17:00.012Z,18.30
2022-08-31T06:19:27.487Z,18.60
2022-08-31T06:21:55.708Z,18.29
2022-08-31T06:24:25.519Z,18.23
2022-08-31T06:26:59.102Z,18.17
2022-08-31T06:29:33.216Z,18.75
2022-08-31T06:32:06.172Z,18.59
2022-08-31T06:34:34.697Z,18.50
2022-08-31T06:37:18.258Z,19.07
2022-08-31T06:40:14.626Z,18.94
2022-08-31T06:42:55.488Z,18.50
2022-08-31T06:45:32.403Z,19.13
2022-08-31T06:48:36.135Z,19.24
2022-08-31T06:51:04.213Z,19.35
2022-08-31T06:53:31.771Z,18.66
2022-08-31T06:56:16.440Z,18.81
2022-08-31T06:59:07.866Z,18.64
2022-08-31T07:01:56.022Z,19.25
2022-08-31T07:04:35.732Z,19.43
2022-08-31T07:07:03.603Z,18.80
2022-08-31T07:09:31.665Z,19.21
2022-08-31T07:11:59.064Z,19.01
2022-08-31T07:14:27.513Z,19.25
2022-08-31T07:16:58.437Z,19.31
2022-08-31T07:19:26.977Z,19.29
2022-08-31T07:22:01.177Z,18.74
2022-08-31T07:24:33.347Z,18.59
2022-08-31T07:27:04.521Z,18.54
2022-08-31T07:30:00.367Z,18.89
2022-08-31T07:32:32.466Z,19.00
2022-08-31T07:35:01.202Z,19.45
2022-08-31T07:37:50.318Z,19.25
2022-08-31T07:40:41.764Z,18.94
2022-08-31T07:43:13.861Z,19.48
2022-08-31T07:45:42.017Z,19.51
2022-08-31T07:48:10.799Z,19.71
2022-08-31T07:50:48.346Z,19.75
2022-08-31T07:53:29.305Z,19.98
2022-08-31T07:56:19.180Z,20.24
2022-08-31T07:58:49.606Z,20.08
2022-08-31T08:01:19.517Z,19.95
2022-08-31T08:03:47.467Z,20.30
2022-08-31T08:06:34.197Z,20.34
2022-08-31T08:09:24.899Z,20.06
2022-08-31T08:12:13.286Z,20.07
2022-08-31T08:14:57.939Z,20.33
2022-08-31T08:17:41.843Z,20.07
2022-08-31T08:20:13.914Z,20.10
2022-08-31T08:22:55.669Z,19.95
2022-08-31T08:25:35.076Z,20.05
2022-08-31T08:28:22.733Z,20.26
2022-08-31T08:30:55.219Z,20.70
2022-08-31T08:33:25.273Z,20.39
2022-08-31T08:35:56.859Z,20.15
2022-08-31T08:38:25.494Z,20.20
2022-08-31T08:40:53.284Z,20.68
2022-08-31T08:43:26.522Z,20.82
2022-08-31T08:45:56.714Z,20.89
2022-08-31T08:48:32.748Z,20.68
2022-08-31T08:51:02.257Z,20.60
2022-08-31T08:53:43.118Z,20.75
2022-08-31T08:56:32.931Z,21.00
2022-08-31T08:59:02.356Z,20.59
2022-08-31T09:01:37.408Z,21.01
2022-08-31T09:04:20.595Z,20.43
2022-08-31T09:07:31.009Z,20.45
2022-08-31T09:10:19.697Z,20.85
2022-08-31T09:12:58.054Z,20.81
2022-08-31T09:15:31.994Z,20.84
2022-08-31T09:18:26.397Z,21.15
2022-08-31T09:21:08.081Z,21.03
2022-08-31T09:23:38.009Z,20.81
2022-08-31T09:26:08.436Z,20.83
2022-08-31T09:28:54.772Z,20.90
2022-08-31T09:31:37.415Z,21.29
2022-08-31T09:34:29.558Z,21.23
2022-08-31T09:37:20.037Z,21.27
2022-08-31T09:39:49.263Z,21.59
2022-08-31T09:42:20.163Z,21.58
2022-08-31T09:44:49.860Z,21.24
2022-08-31T09:47:48.353Z,21.28
2022-08-31T09:50:32.837Z,21.65
2022-08-31T09:53:42.366Z,21.66
2022-08-31T09:56:15.838Z,22.01
2022-08-31T09:58:45.752Z,21.94
2022-08-31T10:01:18.010Z,22.12
2022-08-31T10:03:47.677Z,22.19
2022-08-31T10:06:37.568Z,22.05
2022-08-31T10:09:12.722Z,22.29
2022-08-31T10:11:41.021Z,22.31
2022-08-31T10:14:24.458Z,22.34
2022-08-31T10:17:04.869Z,22.62
2022-08-31T10:19:56.073Z,22.62
2022-08-31T10:22:30.517Z,22.71
2022-08-31T10:25:06.880Z,22.71
2022-08-31T10:27:40.379Z,22.83
2022-08-31T10:30:32.848Z,22.72
2022-08-31T10:33:10.724Z,22.79
2022-08-31T10:35:56.560Z,22.99
2022-08-31T10:38:30.905Z,23.08
2022-08-31T10:41:12.025Z,23.10
2022-08-31T10:44:00.148Z,23.07
2022-08-31T10:46:29.135Z,23.32
2022-08-31T10:48:57.768Z,23.02
2022-08-31T10:51:31.220Z,22.97
2022-08-31T10:54:07.330Z,22.97
2022-08-31T10:56:50.723Z,23.00
2022-08-31T10:59:59.394Z,22.98
2022-08-31T11:02:51.102Z,23.16
2022-08-31T11:05:29.753Z,23.24
2022-08-31T11:07:58.841Z,23.60
2022-08-31T11:10:43.230Z,23.81
2022-08-31T11:13:26.021Z,23.74
2022-08-31T11:16:17.542Z,23.61
2022-08-31T11:19:17.564Z,23.59
2022-08-31T11:22:00.132Z,23.59
2022-08-31T11:25:06.188Z,23.77
2022-08-31T11:27:40.466Z,23.68
2022-08-31T11:30:29.047Z,23.72
2022-08-31T11:33:07.772Z,24.00
2022-08-31T11:36:07.663Z,24.23
2022-08-31T11:38:50.171Z,24.01
2022-08-31T11:41:36.303Z,24.24
2022-08-31T11:44:05.102Z,24.27
2022-08-31T11:46:40.033Z,24.30
2022-08-31T11:49:07.850Z,24.32
2022-08-31T11:51:55.707Z,24.55
2022-08-31T11:54:36.268Z,24.58
2022-08-31T11:57:05.970Z,24.44
2022-08-31T11:59:35.310Z,24.41
2022-08-31T12:02:21.556Z,24.56
2022-08-31T12:04:52.070Z,24.86
2022-08-31T12:07:28.361Z,24.51
2022-08-31T12:10:22.040Z,24.61
2022-08-31T12:13:09.627Z,24.28
2022-08-31T12:15:58.721Z,25.00
2022-08-31T12:18:45.292Z,25.13
2022-08-31T12:21:44.574Z,25.22
2022-08-31T12:24:30.666Z,25.04
2022-08-31T12:27:00.768Z,25.22
2022-08-31T12:29:31.084Z,25.46
2022-08-31T12:32:21.977Z,25.72
2022-08-31T12:35:14.303Z,25.70
2022-08-31T12:37:41.643Z,25.61
2022-08-31T12:40:17.451Z,25.69
2022-08-31T12:42:54.363Z,25.70
2022-08-31T12:45:59.902Z,25.84
2022-08-31T12:48:38.363Z,25.65
2022-08-31T12:51:30.206Z,25.76
2022-08-31T12:54:13.668Z,25.78
2022-08-31T12:56:51.913Z,25.93
2022-08-31T12:59:51.303Z,26.07
2022-08-31T13:02:20.519Z,26.16
2022-08-31T13:04:48.127Z,25.89
2022-08-31T13:07:18.085Z,25.77
2022-08-31T13:09:45.965Z,26.08
2022-08-31T13:12:23.240Z,26.00
2022-08-31T13:14:50.534Z,25.90
2022-08-31T13:17:23.953Z,25.97
2022-08-31T13:19:52.347Z,25.89
2022-08-31T13:22:32.511Z,25.93
2022-08-31T13:25:41.764Z,26.10
2022-08-31T13:28:13.698Z,26.32
2022-08-31T13:30:54.934Z,26.42
2022-08-31T13:33:33.948Z,26.57
2022-08-31T13:36:03.814Z,26.46
2022-08-31T13:38:42.597Z,26.36
2022-08-31T13:41:24.514Z,26.14
2022-08-31T13:44:02.563Z,26.05
2022-08-31T13:46:42.791Z,26.05
2022-08-31T13:49:44.243Z,26.39
2022-08-31T13:52:21.777Z,26.10
2022-08-31T13:55:36.036Z,26.16
2022-08-31T13:58:23.217Z,26.23
2022-08-31T14:00:55.806Z,26.40
2022-08-31T14:03:35.005Z,26.24
2022-08-31T14:06:23.871Z,26.36
2022-08-31T14:08:54.803Z,26.60
2022-08-31T14:11:22.370Z,26.98
2022-08-31T14:13:50.408Z,26.91
2022-08-31T14:16:30.710Z,26.38
2022-08-31T14:18:58.860Z,26.30
2022-08-31T14:21:28.943Z,26.32
2022-08-31T14:24:02.613Z,26.04
2022-08-31T14:26:41.469Z,26.00
2022-08-31T14:29:12.708Z,26.10
2022-08-31T14:31:52.490Z,26.40
2022-08-31T14:34:30.475Z,26.40
2022-08-31T14:37:06.644Z,26.47
2022-08-31T14:39:47.745Z,26.69
2022-08-31T14:42:28.889Z,26.63
2022-08-31T14:45:03.942Z,26.88
2022-08-31T14:47:34.226Z,27.15
2022-08-31T14:50:08.029Z,26.83
2022-08-31T14:52:38.712Z,26.61
2022-08-31T14:55:09.133Z,26.70
2022-08-31T14:57:39.395Z,26.62
2022-08-31T15:00:08.153Z,26.67
2022-08-31T15:02:36.190Z,26.74
2022-08-31T15:05:07.204Z,26.72
2022-08-31T15:07:37.701Z,27.04
2022-08-31T15:10:07.517Z,27.03
2022-08-31T15:12:35.763Z,26.98
2022-08-31T15:15:03.120Z,26.80
2022-08-31T15:17:33.861Z,27.04
2022-08-31T15:20:03.191Z,27.07
2022-08-31T15:22:31.327Z,26.75
2022-08-31T15:24:59.234Z,26.72
2022-08-31T15:27:30.721Z,26.61
2022-08-31T15:30:08.099Z,26.48
2022-08-31T15:32:39.673Z,26.66
2022-08-31T15:35:07.546Z,26.71
2022-08-31T15:37:34.845Z,26.69
2022-08-31T15:40:04.208Z,26.76
2022-08-31T15:42:32.270Z,26.79
2022-08-31T15:45:00.383Z,26.70
2022-08-31T15:47:49.544Z,26.81
2022-08-31T15:50:20.290Z,26.94
2022-08-31T15:52:49.736Z,26.93
2022-08-31T15:55:23.487Z,26.97
2022-08-31T15:57:54.234Z,27.06
2022-08-31T16:00:23.846Z,27.07
2022-08-31T16:02:57.540Z,26.92
2022-08-31T16:05:30.354Z,26.97
2022-08-31T16:08:00.530Z,26.69
2022-08-31T16:10:28.219Z,26.48
2022-08-31T16:12:55.480Z,26.08
2022-08-31T16:15:24.894Z,26.31
2022-08-31T16:17:57.658Z,26.59
2022-08-31T16:20:27.536Z,26.29
2022-08-31T16:22:55.736Z,26.29
2022-08-31T16:25:25.284Z,26.46
2022-08-31T16:27:58.516Z,26.20
2022-08-31T16:30:26.154Z,26.40
2022-08-31T16:32:54.099Z,26.54
2022-08-31T16:35:21.410Z,26.40
2022-08-31T16:37:50.487Z,26.15
2022-08-31T16:40:18.861Z,26.34
2022-08-31T16:42:46.515Z,26.20
2022-08-31T16:45:13.975Z,26.24
2022-08-31T16:47:41.373Z,26.22
2022-08-31T16:50:09.639Z,26.30
2022-08-31T16:52:37.287Z,26.39
2022-08-31T16:55:05.050Z,26.62
2022-08-31T16:57:32.802Z,26.70
2022-08-31T17:00:00.255Z,26.55
2022-08-31T17:02:28.093Z,26.49
2022-08-31T17:05:00.521Z,26.29
2022-08-31T17:07:28.987Z,26.32
2022-08-31T17:10:06.590Z,26.22
2022-08-31T17:12:33.954Z,26.42
2022-08-31T17:15:03.644Z,26.36
2022-08-31T17:17:32.789Z,26.03
2022-08-31T17:20:00.738Z,26.05
2022-08-31T17:22:32.886Z,26.01
2022-08-31T17:25:02.744Z,25.77
2022-08-31T17:27:33.217Z,25.71
2022-08-31T17:30:05.072Z,25.69
2022-08-31T17:32:35.508Z,25.82
2022-08-31T17:35:04.170Z,25.88
2022-08-31T17:37:36.552Z,25.93
2022-08-31T17:40:08.028Z,25.95
2022-08-31T17:42:36.061Z,25.84
2022-08-31T17:45:08.628Z,25.89
2022-08-31T17:47:36.082Z,25.83
2022-08-31T17:50:04.496Z,25.85
2022-08-31T17:52:31.771Z,25.76
2022-08-31T17:55:01.834Z,25.64
2022-08-31T17:57:29.707Z,25.58
2022-08-31T17:59:57.198Z,25.52
2022-08-31T18:02:32.510Z,25.56
2022-08-31T18:05:01.127Z,25.61
2022-08-31T18:07:29.135Z,25.38
2022-08-31T18:09:56.692Z,25.46
2022-08-31T18:12:25.700Z,25.50
2022-08-31T18:14:54.064Z,25.45
2022-08-31T18:17:22.398Z,25.44
2022-08-31T18:19:49.900Z,25.33
2022-08-31T18:22:18.426Z,25.27
2022-08-31T18:24:45.774Z,25.32
2022-08-31T18:27:15.453Z,25.31
2022-08-31T18:29:44.241Z,25.26
2022-08-31T18:32:11.755Z,25.17
2022-08-31T18:34:41.918Z,25.27
2022-08-31T18:37:10.733Z,25.33
2022-08-31T18:39:59.723Z,25.23
2022-08-31T18:42:46.321Z,25.27
2022-08-31T18:45:16.861Z,25.17
2022-08-31T18:48:20.678Z,25.01
2022-08-31T18:50:48.486Z,25.02
2022-08-31T18:53:28.542Z,24.97
2022-08-31T18:56:06.315Z,24.87
2022-08-31T18:58:33.665Z,24.90
2022-08-31T19:01:01.269Z,25.21
2022-08-31T19:03:28.991Z,25.27
2022-08-31T19:05:57.009Z,25.16
2022-08-31T19:08:26.134Z,25.04
2022-08-31T19:10:57.292Z,24.85
2022-08-31T19:13:28.555Z,24.86
2022-08-31T19:16:00.616Z,24.87
2022-08-31T19:18:29.715Z,25.14
2022-08-31T19:20:57.081Z,24.92
2022-08-31T19:23:24.613Z,24.98
2022-08-31T19:25:52.218Z,24.93
2022-08-31T19:28:19.551Z,24.92
2022-08-31T19:30:48.590Z,24.97
2022-08-31T19:33:16.306Z,24.94
2022-08-31T19:35:44.360Z,25.01
2022-08-31T19:38:12.062Z,24.90
2022-08-31T19:40:40.119Z,24.74
2022-08-31T19:45:55.199Z,24.47
2022-08-31T19:48:23.750Z,24.59
2022-08-31T19:50:52.045Z,24.61
2022-08-31T19:53:21.396Z,24.66
2022-08-31T19:55:50.768Z,24.93
2022-08-31T19:58:26.486Z,25.03
2022-08-31T20:01:00.711Z,24.90
2022-08-31T20:03:31.203Z,24.92
2022-08-31T20:05:59.890Z,25.06
2022-08-31T20:08:27.261Z,24.84
2022-08-31T20:10:54.516Z,24.90
2022-08-31T20:13:24.166Z,24.75
2022-08-31T20:15:53.077Z,24.82
2022-08-31T20:18:20.882Z,24.71
2022-08-31T20:20:50.801Z,24.60
2022-08-31T20:23:20.073Z,24.32
2022-08-31T20:25:50.156Z,24.06
2022-08-31T20:28:21.761Z,24.04
2022-08-31T20:30:49.177Z,23.89
2022-08-31T20:33:16.751Z,23.89
2022-08-31T20:35:47.602Z,24.05
2022-08-31T20:38:16.812Z,24.25
2022-08-31T20:40:47.171Z,24.28
2022-08-31T20:43:14.748Z,24.11
2022-08-31T20:45:42.434Z,24.10
2022-08-31T20:48:29.037Z,24.14
2022-08-31T20:50:56.541Z,23.93
2022-08-31T20:53:24.887Z,23.84
2022-08-31T20:56:06.971Z,23.72
2022-08-31T20:58:34.239Z,23.70
2022-08-31T21:01:07.846Z,23.84
2022-08-31T21:03:35.151Z,23.33
2022-08-31T21:06:08.245Z,23.55
2022-08-31T21:08:38.257Z,23.42
2022-08-31T21:11:12.632Z,23.32
2022-08-31T21:13:39.970Z,23.36
2022-08-31T21:16:07.419Z,23.57
2022-08-31T21:18:35.229Z,23.75
2022-08-31T21:21:08.311Z,23.90
2022-08-31T21:23:37.291Z,24.26
2022-08-31T21:26:08.545Z,23.92
2022-08-31T21:28:39.235Z,23.62
2022-08-31T21:31:16.417Z,23.74
2022-08-31T21:33:57.778Z,23.67
2022-08-31T21:36:26.679Z,23.45
2022-08-31T21:38:56.318Z,23.31
2022-08-31T21:41:26.682Z,23.10
2022-08-31T21:43:55.687Z,23.27
2022-08-31T21:46:28.333Z,23.26
2022-08-31T21:48:57.761Z,23.08
2022-08-31T21:51:30.754Z,22.97
2022-08-31T21:54:01.364Z,22.92
2022-08-31T21:56:31.588Z,22.89
2022-08-31T21:58:59.776Z,23.08
2022-08-31T22:01:29.446Z,23.10
2022-08-31T22:03:58.706Z,22.73
2022-08-31T22:06:31.431Z,22.70
2022-08-31T22:09:03.260Z,22.72
2022-08-31T22:11:32.972Z,22.59
2022-08-31T22:14:00.412Z,22.88
2022-08-31T22:16:27.909Z,22.73
2022-08-31T22:19:02.078Z,22.80
2022-08-31T22:21:34.166Z,22.62
2022-08-31T22:24:09.277Z,22.67
2022-08-31T22:26:40.090Z,22.57
2022-08-31T22:29:09.554Z,22.37
2022-08-31T22:31:38.254Z,22.31
2022-08-31T22:34:10.224Z,22.45
2022-08-31T22:36:38.148Z,22.57
2022-08-31T22:39:10.538Z,22.61
2022-08-31T22:41:39.522Z,22.75
2022-08-31T22:44:09.590Z,22.78
2022-08-31T22:46:37.352Z,22.52
2022-08-31T22:49:06.140Z,22.53
2022-08-31T22:51:38.172Z,22.43
2022-08-31T22:54:06.934Z,22.25
2022-08-31T22:56:35.874Z,22.39
2022-08-31T22:59:06.848Z,22.15
2022-08-31T23:01:38.195Z,21.90
2022-08-31T23:04:07.187Z,21.97
2022-08-31T23:06:36.197Z,21.90
2022-08-31T23:09:06.967Z,21.93
2022-08-31T23:11:34.640Z,21.94
2022-08-31T23:14:07.266Z,22.04
2022-08-31T23:16:42.234Z,22.28
2022-08-31T23:19:21.684Z,22.46
2022-08-31T23:21:55.048Z,22.58
2022-08-31T23:24:28.746Z,22.64
2022-08-31T23:27:01.690Z,22.46
2022-08-31T23:29:47.046Z,22.26
2022-08-31T23:32:18.088Z,22.37
2022-08-31T23:34:46.811Z,22.22
2022-08-31T23:37:17.385Z,22.36
2022-08-31T23:39:46.262Z,22.28
2022-08-31T23:42:15.594Z,22.18
2022-08-31T23:44:44.707Z,22.16
2022-08-31T23:47:14.890Z,22.43
2022-08-31T23:49:42.429Z,22.48
2022-08-31T23:52:12.022Z,22.34
2022-08-31T23:54:40.116Z,22.34
2022-08-31T23:57:08.431Z,22.26
2022-08-31T23:59:52.240Z,22.58
